• Join FlightAware (Why Join?)
  • Login
  • US Flag 
02:24AM EDT


 

Airport Tracker/Info


-or-


 

Live Flight TrackerFlight Track Log ✈ PDT4314 ✈ 11-Feb-2014 ✈ KBGM - KPHL

Flight Track Log - Related Links

Times and Time Zones

All times are in EST time to prevent confusion due to time zone crossing. See the PDT4314 flight status page for this flight to view local times or setup timezone preferences in your user account.

Time Position Orientation Groundspeed Altitude Reporting Facility
EST Latitude Longitude Course Direction KTS MPH feet Rate Location/Type
06:58PM 41.9498 -75.8951 180° South  Level Estimated
06:59PM 41.8972 -75.9052 188° South  Level FlightAware Approximate
07:00PM 41.8445 -75.9153 188° South  Level FlightAware Approximate
07:01PM 41.7918 -75.9254 188° South  Level FlightAware Approximate
07:02PM 41.7405 -75.9065 154° Southeast  Level Estimated
07:03PM 41.6891 -75.8877 160° South  Level Estimated
07:04PM 41.6378 -75.8689 159° South  Level Estimated
07:05PM 41.5880 -75.8439 159° South  Level FlightAware Approximate
07:06PM 41.5381 -75.8190 159° South  Level FlightAware Approximate
07:07PM 41.4867 -75.8007 153° Southeast  Level Estimated
07:08PM 41.4353 -75.7825 161° South  Level Estimated
07:09PM 41.3866 -75.7538 156° South  Level FlightAware Approximate
07:10PM 41.3379 -75.7252 156° South  Level FlightAware Approximate
07:11PM 41.2892 -75.6966 156° South  Level FlightAware Approximate
07:12PM 41.2376 -75.6796 162° South  Level Estimated
07:13PM 41.1875 -75.6557 160° South  Level FlightAware Approximate
07:14PM 41.1374 -75.6319 160° South  Level FlightAware Approximate
07:15PM 41.0873 -75.6081 160° South  Level FlightAware Approximate
07:16PM 41.0372 -75.5843 160° South  Level FlightAware Approximate
07:17PM 40.9853 -75.5687 159° South  Level Estimated
07:18PM 40.9334 -75.5532 163° South  Level Estimated
07:19PM 40.8833 -75.5293 160° South  Level FlightAware Approximate
07:19PM 40.5667 -75.6167 193° South 264 304 5,100  Level Philadelphia TRACON
07:20PM 40.8332 -75.5054 160° South  Level FlightAware Approximate
07:20PM 40.5167 -75.6167 180° South 247 284 5,000  Level Philadelphia TRACON
07:21PM 40.7832 -75.4816 160° South  Level FlightAware Approximate
07:21PM 40.4667 -75.6000 166° South 238 274 5,000  Level Philadelphia TRACON
07:22PM 40.7331 -75.4578 160° South  Level FlightAware Approximate
07:22PM 40.4000 -75.5833 169° South 237 273 5,000  Level Philadelphia TRACON
07:23PM 40.6809 -75.4445 190° South  Level Estimated
07:23PM 40.3500 -75.5333 143° Southeast 239 275 5,000  Level Philadelphia TRACON
07:24PM 40.6290 -75.4604 193° South  Level FlightAware Approximate
07:24PM 40.3000 -75.4667 135° Southeast 240 276 5,000  Level Philadelphia TRACON
07:25PM 40.5772 -75.4763 193° South  Level FlightAware Approximate
07:25PM 40.2500 -75.4167 143° Southeast 239 275 4,800  Level Philadelphia TRACON
07:26PM 40.2000 -75.3500 134° Southeast 251 289 4,200 -420 Descending Philadelphia TRACON
07:27PM 40.1500 -75.3000 143° Southeast 248 285 4,000 -120 Descending Philadelphia TRACON
07:28PM 40.0833 -75.2500 150° Southeast 240 276 4,000  Level Philadelphia TRACON
07:29PM 40.0167 -75.2167 159° South 241 277 4,000  Level Philadelphia TRACON
07:30PM 39.9667 -75.1833 153° Southeast 231 266 4,000  Level Philadelphia TRACON
07:31PM 39.9000 -75.1500 159° South 218 251 4,000 -360 Level Philadelphia TRACON
07:32PM 39.8500 -75.1167 153° Southeast 209 241 3,400 -840 Descending Philadelphia TRACON
07:33PM 39.8000 -75.1167 180° South 198 228 2,400 -720 Descending Philadelphia TRACON
07:34PM 39.7833 -75.1833 252° West 184 212 2,000 -600 Descending Philadelphia TRACON
07:35PM 39.8167 -75.2000 339° North 135 155 1,200 -780 Descending Philadelphia TRACON
07:36PM 39.8500 -75.2167 339° North 113 130 500 -720 Descending Philadelphia TRACON